sensor_id;sensor_type;location;lat;lon;timestamp;pressure;altitude;pressure_sealevel;temperature;humidity
4449;BME280;2237;51.870;6.160;2022-09-09T00:04:17;100642.47;;;17.70;89.69
4449;BME280;2237;51.870;6.160;2022-09-09T00:07:00;100656.75;;;17.82;89.69
4449;BME280;2237;51.870;6.160;2022-09-09T00:09:35;100643.50;;;17.83;89.20
4449;BME280;2237;51.870;6.160;2022-09-09T00:12:11;100649.78;;;17.81;89.08
4449;BME280;2237;51.870;6.160;2022-09-09T00:14:56;100644.50;;;17.81;88.75
4449;BME280;2237;51.870;6.160;2022-09-09T00:17:39;100643.94;;;17.76;88.39
4449;BME280;2237;51.870;6.160;2022-09-09T00:23:30;100654.78;;;17.70;88.48
4449;BME280;2237;51.870;6.160;2022-09-09T00:28:39;100649.00;;;17.63;88.58
4449;BME280;2237;51.870;6.160;2022-09-09T00:31:14;100645.59;;;17.61;88.64
4449;BME280;2237;51.870;6.160;2022-09-09T00:33:42;100639.09;;;17.51;88.66
4449;BME280;2237;51.870;6.160;2022-09-09T00:36:13;100649.25;;;17.59;88.49
4449;BME280;2237;51.870;6.160;2022-09-09T00:38:48;100656.38;;;17.57;88.67
4449;BME280;2237;51.870;6.160;2022-09-09T00:42:17;100655.44;;;17.58;88.66
4449;BME280;2237;51.870;6.160;2022-09-09T00:44:34;100651.97;;;17.57;88.02
4449;BME280;2237;51.870;6.160;2022-09-09T00:55:17;100643.19;;;17.57;87.79
4449;BME280;2237;51.870;6.160;2022-09-09T00:57:50;100642.44;;;17.55;87.10
4449;BME280;2237;51.870;6.160;2022-09-09T01:00:22;100642.56;;;17.51;87.03
4449;BME280;2237;51.870;6.160;2022-09-09T01:02:55;100634.09;;;17.46;87.33
4449;BME280;2237;51.870;6.160;2022-09-09T01:08:03;100641.34;;;17.41;87.57
4449;BME280;2237;51.870;6.160;2022-09-09T01:10:51;100636.25;;;17.38;87.44
4449;BME280;2237;51.870;6.160;2022-09-09T01:13:27;100639.13;;;17.34;87.43
4449;BME280;2237;51.870;6.160;2022-09-09T01:16:01;100631.50;;;17.29;87.89
4449;BME280;2237;51.870;6.160;2022-09-09T01:18:36;100632.41;;;17.28;88.04
4449;BME280;2237;51.870;6.160;2022-09-09T01:21:20;100641.41;;;17.24;88.01
4449;BME280;2237;51.870;6.160;2022-09-09T01:26:56;100633.22;;;17.13;88.67
4449;BME280;2237;51.870;6.160;2022-09-09T01:29:25;100643.16;;;17.08;88.98
4449;BME280;2237;51.870;6.160;2022-09-09T01:31:55;100632.06;;;17.02;89.51
4449;BME280;2237;51.870;6.160;2022-09-09T01:34:24;100626.97;;;16.99;89.71
4449;BME280;2237;51.870;6.160;2022-09-09T01:39:32;100617.25;;;17.01;89.67
4449;BME280;2237;51.870;6.160;2022-09-09T01:41:59;100620.63;;;17.03;89.47
4449;BME280;2237;51.870;6.160;2022-09-09T01:44:26;100626.13;;;16.98;89.28
4449;BME280;2237;51.870;6.160;2022-09-09T01:46:54;100626.28;;;16.95;89.65
4449;BME280;2237;51.870;6.160;2022-09-09T01:49:21;100628.13;;;16.93;89.52
4449;BME280;2237;51.870;6.160;2022-09-09T01:51:51;100622.88;;;16.93;89.75
4449;BME280;2237;51.870;6.160;2022-09-09T01:54:19;100610.84;;;16.89;90.06
4449;BME280;2237;51.870;6.160;2022-09-09T02:02:25;100626.94;;;16.83;90.31
4449;BME280;2237;51.870;6.160;2022-09-09T02:07:43;100628.09;;;16.77;90.47
4449;BME280;2237;51.870;6.160;2022-09-09T02:10:37;100628.09;;;16.77;90.12
4449;BME280;2237;51.870;6.160;2022-09-09T02:13:10;100629.06;;;16.75;90.31
4449;BME280;2237;51.870;6.160;2022-09-09T02:15:52;100624.91;;;16.71;90.25
4449;BME280;2237;51.870;6.160;2022-09-09T02:21:07;100632.41;;;16.61;90.71
4449;BME280;2237;51.870;6.160;2022-09-09T02:23:39;100626.38;;;16.59;90.90
4449;BME280;2237;51.870;6.160;2022-09-09T02:26:10;100620.13;;;16.62;90.88
4449;BME280;2237;51.870;6.160;2022-09-09T02:28:40;100634.19;;;16.61;90.88
4449;BME280;2237;51.870;6.160;2022-09-09T02:31:08;100630.78;;;16.59;90.72
4449;BME280;2237;51.870;6.160;2022-09-09T02:33:41;100622.13;;;16.57;91.02
4449;BME280;2237;51.870;6.160;2022-09-09T02:36:10;100619.50;;;16.57;91.11
4449;BME280;2237;51.870;6.160;2022-09-09T02:38:43;100619.56;;;16.55;91.44
4449;BME280;2237;51.870;6.160;2022-09-09T02:41:11;100623.16;;;16.54;91.27
4449;BME280;2237;51.870;6.160;2022-09-09T02:43:38;100619.66;;;16.54;91.61
4449;BME280;2237;51.870;6.160;2022-09-09T02:51:35;100609.63;;;16.43;92.19
4449;BME280;2237;51.870;6.160;2022-09-09T02:54:12;100621.75;;;16.46;92.59
4449;BME280;2237;51.870;6.160;2022-09-09T02:56:49;100613.06;;;16.45;92.93
4449;BME280;2237;51.870;6.160;2022-09-09T02:59:17;100618.38;;;16.44;93.46
4449;BME280;2237;51.870;6.160;2022-09-09T03:01:44;100622.84;;;16.42;93.93
4449;BME280;2237;51.870;6.160;2022-09-09T03:04:11;100622.84;;;16.42;94.12
4449;BME280;2237;51.870;6.160;2022-09-09T03:06:37;100622.00;;;16.41;94.78
4449;BME280;2237;51.870;6.160;2022-09-09T03:09:04;100616.03;;;16.37;94.67
4449;BME280;2237;51.870;6.160;2022-09-09T03:11:30;100619.63;;;16.36;95.35
4449;BME280;2237;51.870;6.160;2022-09-09T03:13:56;100618.66;;;16.37;95.29
4449;BME280;2237;51.870;6.160;2022-09-09T03:16:23;100622.16;;;16.38;95.31
4449;BME280;2237;51.870;6.160;2022-09-09T03:18:50;100627.50;;;16.36;95.53
4449;BME280;2237;51.870;6.160;2022-09-09T03:21:16;100624.88;;;16.36;95.64
4449;BME280;2237;51.870;6.160;2022-09-09T03:23:42;100627.34;;;16.39;95.72
4449;BME280;2237;51.870;6.160;2022-09-09T03:26:09;100625.50;;;16.42;95.80
4449;BME280;2237;51.870;6.160;2022-09-09T03:28:35;100629.88;;;16.41;95.52
4449;BME280;2237;51.870;6.160;2022-09-09T03:31:05;100631.66;;;16.40;95.81
4449;BME280;2237;51.870;6.160;2022-09-09T03:33:32;100632.59;;;16.39;95.83
4449;BME280;2237;51.870;6.160;2022-09-09T03:35:58;100629.19;;;16.37;96.25
4449;BME280;2237;51.870;6.160;2022-09-09T03:38:25;100618.91;;;16.33;96.55
4449;BME280;2237;51.870;6.160;2022-09-09T03:40:53;100624.78;;;16.38;96.59
4449;BME280;2237;51.870;6.160;2022-09-09T03:43:26;100625.63;;;16.38;96.40
4449;BME280;2237;51.870;6.160;2022-09-09T03:45:54;100617.75;;;16.38;96.91
4449;BME280;2237;51.870;6.160;2022-09-09T03:48:23;100626.41;;;16.40;96.90
4449;BME280;2237;51.870;6.160;2022-09-09T03:50:52;100630.75;;;16.42;97.22
4449;BME280;2237;51.870;6.160;2022-09-09T03:53:21;100622.63;;;16.46;97.18
4449;BME280;2237;51.870;6.160;2022-09-09T03:55:51;100611.25;;;16.46;97.27
4449;BME280;2237;51.870;6.160;2022-09-09T03:58:23;100620.78;;;16.48;97.33
4449;BME280;2237;51.870;6.160;2022-09-09T04:00:55;100621.69;;;16.47;97.80
4449;BME280;2237;51.870;6.160;2022-09-09T04:03:22;100619.47;;;16.39;98.49
4449;BME280;2237;51.870;6.160;2022-09-09T04:05:54;100619.06;;;16.47;98.79
4449;BME280;2237;51.870;6.160;2022-09-09T04:08:22;100623.19;;;16.53;98.66
4449;BME280;2237;51.870;6.160;2022-09-09T04:10:49;100625.69;;;16.56;98.46
4449;BME280;2237;51.870;6.160;2022-09-09T04:13:16;100625.53;;;16.59;98.24
4449;BME280;2237;51.870;6.160;2022-09-09T04:15:44;100625.38;;;16.62;98.17
4449;BME280;2237;51.870;6.160;2022-09-09T04:18:16;100619.81;;;16.68;98.15
4449;BME280;2237;51.870;6.160;2022-09-09T04:20:49;100622.44;;;16.68;98.82
4449;BME280;2237;51.870;6.160;2022-09-09T04:23:17;100613.59;;;16.69;98.51
4449;BME280;2237;51.870;6.160;2022-09-09T04:25:46;100615.63;;;16.64;99.23
4449;BME280;2237;51.870;6.160;2022-09-09T04:28:14;100610.81;;;16.55;99.93
4449;BME280;2237;51.870;6.160;2022-09-09T04:30:42;100607.75;;;16.64;99.68
4449;BME280;2237;51.870;6.160;2022-09-09T04:33:08;100601.56;;;16.65;99.71
4449;BME280;2237;51.870;6.160;2022-09-09T04:35:36;100600.66;;;16.66;99.70
4449;BME280;2237;51.870;6.160;2022-09-09T04:38:04;100607.75;;;16.64;100.00
4449;BME280;2237;51.870;6.160;2022-09-09T04:40:31;100600.81;;;16.63;100.00
4449;BME280;2237;51.870;6.160;2022-09-09T04:42:59;100603.88;;;16.71;100.00
4449;BME280;2237;51.870;6.160;2022-09-09T04:45:26;100608.59;;;16.64;100.00
4449;BME280;2237;51.870;6.160;2022-09-09T04:47:53;100611.53;;;16.58;100.00
4449;BME280;2237;51.870;6.160;2022-09-09T04:50:19;100608.84;;;16.60;100.00
4449;BME280;2237;51.870;6.160;2022-09-09T04:52:46;100600.38;;;16.53;100.00
4449;BME280;2237;51.870;6.160;2022-09-09T04:55:12;100603.72;;;16.57;100.00
4449;BME280;2237;51.870;6.160;2022-09-09T04:57:39;100609.28;;;16.68;100.00
4449;BME280;2237;51.870;6.160;2022-09-09T05:00:06;100604.75;;;16.71;100.00
4449;BME280;2237;51.870;6.160;2022-09-09T05:02:37;100603.09;;;16.69;100.00
4449;BME280;2237;51.870;6.160;2022-09-09T05:05:05;100602.94;;;16.72;100.00
4449;BME280;2237;51.870;6.160;2022-09-09T05:07:31;100602.94;;;16.72;100.00
4449;BME280;2237;51.870;6.160;2022-09-09T05:09:58;100599.22;;;16.76;100.00
4449;BME280;2237;51.870;6.160;2022-09-09T05:12:24;100593.81;;;16.79;100.00
4449;BME280;2237;51.870;6.160;2022-09-09T05:14:52;100586.38;;;16.70;100.00
4449;BME280;2237;51.870;6.160;2022-09-09T05:17:18;100588.88;;;16.73;100.00
4449;BME280;2237;51.870;6.160;2022-09-09T05:19:44;100580.66;;;16.79;100.00
4449;BME280;2237;51.870;6.160;2022-09-09T05:22:11;100592.75;;;16.83;100.00
4449;BME280;2237;51.870;6.160;2022-09-09T05:24:38;100585.16;;;16.77;100.00
4449;BME280;2237;51.870;6.160;2022-09-09T05:27:05;100587.53;;;16.81;100.00
4449;BME280;2237;51.870;6.160;2022-09-09T05:29:32;100589.78;;;16.89;100.00
4449;BME280;2237;51.870;6.160;2022-09-09T05:32:02;100581.09;;;16.87;100.00
4449;BME280;2237;51.870;6.160;2022-09-09T05:34:28;100587.06;;;16.90;100.00
4449;BME280;2237;51.870;6.160;2022-09-09T05:36:55;100583.25;;;16.96;100.00
4449;BME280;2237;51.870;6.160;2022-09-09T05:39:21;100577.84;;;16.99;100.00
4449;BME280;2237;51.870;6.160;2022-09-09T05:41:48;100584.72;;;17.02;100.00
4449;BME280;2237;51.870;6.160;2022-09-09T05:44:14;100582.84;;;17.04;100.00
4449;BME280;2237;51.870;6.160;2022-09-09T05:46:40;100597.66;;;17.06;100.00
4449;BME280;2237;51.870;6.160;2022-09-09T05:49:07;100589.44;;;16.95;100.00
4449;BME280;2237;51.870;6.160;2022-09-09T05:51:34;100595.09;;;17.05;100.00
4449;BME280;2237;51.870;6.160;2022-09-09T05:54:00;100597.25;;;17.14;100.00
4449;BME280;2237;51.870;6.160;2022-09-09T05:56:28;100600.56;;;17.17;100.00
4449;BME280;2237;51.870;6.160;2022-09-09T05:58:56;100598.53;;;17.22;100.00
4449;BME280;2237;51.870;6.160;2022-09-09T06:01:25;100599.28;;;17.24;100.00
4449;BME280;2237;51.870;6.160;2022-09-09T06:03:52;100586.63;;;17.15;100.00
4449;BME280;2237;51.870;6.160;2022-09-09T06:06:22;100608.41;;;17.34;100.00
4449;BME280;2237;51.870;6.160;2022-09-09T06:08:51;100598.47;;;17.39;99.81
4449;BME280;2237;51.870;6.160;2022-09-09T06:13:45;100602.13;;;17.37;100.00
4449;BME280;2237;51.870;6.160;2022-09-09T06:16:15;100602.31;;;17.49;99.73
4449;BME280;2237;51.870;6.160;2022-09-09T06:18:43;100607.88;;;17.61;99.02
4449;BME280;2237;51.870;6.160;2022-09-09T06:21:18;100608.31;;;17.69;98.54
4449;BME280;2237;51.870;6.160;2022-09-09T06:23:45;100607.44;;;17.68;97.88
4449;BME280;2237;51.870;6.160;2022-09-09T06:26:16;100602.88;;;17.72;97.67
4449;BME280;2237;51.870;6.160;2022-09-09T06:28:47;100611.19;;;17.80;97.19
4449;BME280;2237;51.870;6.160;2022-09-09T06:31:17;100600.66;;;17.80;97.20
4449;BME280;2237;51.870;6.160;2022-09-09T06:33:45;100614.34;;;17.86;96.32
4449;BME280;2237;51.870;6.160;2022-09-09T06:36:14;100614.50;;;17.83;96.52
4449;BME280;2237;51.870;6.160;2022-09-09T06:38:41;100613.41;;;17.87;97.01
4449;BME280;2237;51.870;6.160;2022-09-09T06:41:09;100614.34;;;17.86;97.31
4449;BME280;2237;51.870;6.160;2022-09-09T06:43:36;100602.88;;;17.87;96.98
4449;BME280;2237;51.870;6.160;2022-09-09T06:46:09;100607.97;;;17.75;97.73
4449;BME280;2237;51.870;6.160;2022-09-09T06:48:38;100607.81;;;17.78;97.51
4449;BME280;2237;51.870;6.160;2022-09-09T06:51:18;100607.81;;;17.78;97.46
4449;BME280;2237;51.870;6.160;2022-09-09T06:53:46;100601.84;;;17.74;97.71
4449;BME280;2237;51.870;6.160;2022-09-09T06:56:29;100606.72;;;17.82;98.04
4449;BME280;2237;51.870;6.160;2022-09-09T06:58:57;100608.16;;;17.87;97.67
4449;BME280;2237;51.870;6.160;2022-09-09T07:01:27;100606.78;;;17.96;97.54
4449;BME280;2237;51.870;6.160;2022-09-09T07:03:56;100608.13;;;18.03;97.55
4449;BME280;2237;51.870;6.160;2022-09-09T07:06:25;100613.22;;;18.06;96.73
4449;BME280;2237;51.870;6.160;2022-09-09T07:08:54;100610.25;;;18.12;96.62
4449;BME280;2237;51.870;6.160;2022-09-09T07:11:24;100611.84;;;18.15;95.81
4449;BME280;2237;51.870;6.160;2022-09-09T07:13:53;100605.97;;;18.25;95.36
4449;BME280;2237;51.870;6.160;2022-09-09T07:16:20;100621.53;;;18.30;95.00
4449;BME280;2237;51.870;6.160;2022-09-09T07:18:50;100612.00;;;18.27;93.99
4449;BME280;2237;51.870;6.160;2022-09-09T07:21:17;100607.06;;;18.37;93.40
4449;BME280;2237;51.870;6.160;2022-09-09T07:23:44;100618.53;;;18.51;93.07
4449;BME280;2237;51.870;6.160;2022-09-09T07:26:14;100609.13;;;18.61;92.34
4449;BME280;2237;51.870;6.160;2022-09-09T07:28:41;100607.38;;;18.76;91.69
4449;BME280;2237;51.870;6.160;2022-09-09T07:31:46;100603.47;;;18.83;90.03
4449;BME280;2237;51.870;6.160;2022-09-09T07:34:06;100615.28;;;18.62;89.82
4449;BME280;2237;51.870;6.160;2022-09-09T07:36:38;100612.25;;;18.38;90.47
4449;BME280;2237;51.870;6.160;2022-09-09T07:39:08;100610.09;;;18.45;91.49
4449;BME280;2237;51.870;6.160;2022-09-09T07:41:46;100624.41;;;18.56;90.21
4449;BME280;2237;51.870;6.160;2022-09-09T07:44:18;100611.06;;;18.74;88.93
4449;BME280;2237;51.870;6.160;2022-09-09T07:46:46;100621.94;;;18.83;87.03
4449;BME280;2237;51.870;6.160;2022-09-09T07:49:13;100620.41;;;18.79;87.13
4449;BME280;2237;51.870;6.160;2022-09-09T07:51:45;100617.09;;;18.76;87.02
4449;BME280;2237;51.870;6.160;2022-09-09T07:54:14;100630.06;;;18.65;87.78
4449;BME280;2237;51.870;6.160;2022-09-09T07:56:41;100620.91;;;18.40;89.48
4449;BME280;2237;51.870;6.160;2022-09-09T07:59:09;100622.72;;;18.40;88.74
4449;BME280;2237;51.870;6.160;2022-09-09T08:01:41;100623.72;;;18.53;88.73
4449;BME280;2237;51.870;6.160;2022-09-09T08:04:15;100629.31;;;18.63;87.13
4449;BME280;2237;51.870;6.160;2022-09-09T08:06:54;100630.09;;;18.79;86.35
4449;BME280;2237;51.870;6.160;2022-09-09T08:09:21;100626.06;;;18.87;85.16
4449;BME280;2237;51.870;6.160;2022-09-09T08:11:51;100626.06;;;19.01;82.97
4449;BME280;2237;51.870;6.160;2022-09-09T08:14:17;100624.84;;;19.07;81.92
4449;BME280;2237;51.870;6.160;2022-09-09T08:16:46;100620.63;;;19.04;80.60
4449;BME280;2237;51.870;6.160;2022-09-09T08:19:12;100622.16;;;19.23;79.80
4449;BME280;2237;51.870;6.160;2022-09-09T08:21:43;100626.50;;;19.52;78.09
4449;BME280;2237;51.870;6.160;2022-09-09T08:24:10;100623.50;;;19.44;75.61
4449;BME280;2237;51.870;6.160;2022-09-09T08:26:42;100629.22;;;19.50;74.77
4449;BME280;2237;51.870;6.160;2022-09-09T08:29:10;100629.53;;;19.46;75.32
4449;BME280;2237;51.870;6.160;2022-09-09T08:31:39;100625.56;;;19.39;74.95
4449;BME280;2237;51.870;6.160;2022-09-09T08:34:07;100632.47;;;19.55;75.00
4449;BME280;2237;51.870;6.160;2022-09-09T08:36:37;100630.50;;;19.86;73.83
4449;BME280;2237;51.870;6.160;2022-09-09T08:39:05;100627.47;;;19.92;72.29
4449;BME280;2237;51.870;6.160;2022-09-09T08:44:54;100635.63;;;20.15;71.45
4449;BME280;2237;51.870;6.160;2022-09-09T08:53:15;100639.53;;;20.10;70.86
4449;BME280;2237;51.870;6.160;2022-09-09T08:55:54;100639.91;;;20.04;70.39
4449;BME280;2237;51.870;6.160;2022-09-09T08:58:27;100636.19;;;19.94;71.25
4449;BME280;2237;51.870;6.160;2022-09-09T09:03:58;100640.47;;;20.09;71.38
4449;BME280;2237;51.870;6.160;2022-09-09T09:06:39;100643.88;;;19.97;71.92
4449;BME280;2237;51.870;6.160;2022-09-09T09:09:23;100641.31;;;20.09;71.84
4449;BME280;2237;51.870;6.160;2022-09-09T09:11:55;100650.38;;;20.19;70.32
4449;BME280;2237;51.870;6.160;2022-09-09T09:14:31;100645.34;;;20.29;70.19
4449;BME280;2237;51.870;6.160;2022-09-09T09:19:32;100640.47;;;20.62;67.96
4449;BME280;2237;51.870;6.160;2022-09-09T09:25:10;100647.78;;;20.59;66.49
4449;BME280;2237;51.870;6.160;2022-09-09T09:27:40;100650.34;;;20.60;64.75
4449;BME280;2237;51.870;6.160;2022-09-09T09:30:19;100640.72;;;20.72;63.94
4449;BME280;2237;51.870;6.160;2022-09-09T09:32:59;100658.28;;;20.73;63.83
4449;BME280;2237;51.870;6.160;2022-09-09T09:35:27;100641.41;;;20.61;64.03
4449;BME280;2237;51.870;6.160;2022-09-09T09:37:54;100641.88;;;20.68;64.18
4449;BME280;2237;51.870;6.160;2022-09-09T09:40:49;100643.66;;;20.67;64.59
4449;BME280;2237;51.870;6.160;2022-09-09T09:43:33;100648.97;;;20.67;64.43
4449;BME280;2237;51.870;6.160;2022-09-09T09:46:03;100635.78;;;20.53;64.67
4449;BME280;2237;51.870;6.160;2022-09-09T09:48:43;100640.09;;;20.94;63.19
4449;BME280;2237;51.870;6.160;2022-09-09T09:51:14;100634.63;;;21.34;62.18
4449;BME280;2237;51.870;6.160;2022-09-09T09:53:42;100646.34;;;21.68;61.24
4449;BME280;2237;51.870;6.160;2022-09-09T09:56:10;100647.41;;;21.66;60.59
4449;BME280;2237;51.870;6.160;2022-09-09T09:58:51;100635.78;;;21.43;60.38
4449;BME280;2237;51.870;6.160;2022-09-09T10:01:25;100645.19;;;21.60;60.48
4449;BME280;2237;51.870;6.160;2022-09-09T10:03:57;100643.47;;;21.84;59.56
4449;BME280;2237;51.870;6.160;2022-09-09T10:06:32;100650.28;;;22.12;58.77
4449;BME280;2237;51.870;6.160;2022-09-09T10:08:59;100639.56;;;21.89;56.70
4449;BME280;2237;51.870;6.160;2022-09-09T10:11:49;100639.81;;;21.61;58.11
4449;BME280;2237;51.870;6.160;2022-09-09T10:14:35;100628.38;;;21.48;58.79
4449;BME280;2237;51.870;6.160;2022-09-09T10:17:40;100643.34;;;21.24;59.47
4449;BME280;2237;51.870;6.160;2022-09-09T10:20:21;100642.19;;;21.15;60.69
4449;BME280;2237;51.870;6.160;2022-09-09T10:22:52;100641.00;;;21.32;61.69
4449;BME280;2237;51.870;6.160;2022-09-09T10:36:41;100635.91;;;21.16;61.64
4449;BME280;2237;51.870;6.160;2022-09-09T10:39:39;100634.53;;;21.11;61.56
4449;BME280;2237;51.870;6.160;2022-09-09T10:42:19;100640.91;;;21.21;60.84
4449;BME280;2237;51.870;6.160;2022-09-09T10:50:12;100623.38;;;20.80;61.52
4449;BME280;2237;51.870;6.160;2022-09-09T10:55:24;100633.06;;;20.67;62.55
4449;BME280;2237;51.870;6.160;2022-09-09T10:57:58;100634.25;;;20.63;61.72
4449;BME280;2237;51.870;6.160;2022-09-09T11:00:31;100637.22;;;20.84;62.14
4449;BME280;2237;51.870;6.160;2022-09-09T11:03:03;100635.31;;;20.73;62.52
4449;BME280;2237;51.870;6.160;2022-09-09T11:05:37;100634.25;;;20.63;62.57
4449;BME280;2237;51.870;6.160;2022-09-09T11:08:25;100631.91;;;20.59;62.81
4449;BME280;2237;51.870;6.160;2022-09-09T11:11:06;100638.09;;;20.97;62.19
4449;BME280;2237;51.870;6.160;2022-09-09T11:16:34;100631.28;;;21.81;58.03
4449;BME280;2237;51.870;6.160;2022-09-09T11:19:14;100628.63;;;21.81;58.10
4449;BME280;2237;51.870;6.160;2022-09-09T11:21:52;100639.38;;;21.67;57.89
4449;BME280;2237;51.870;6.160;2022-09-09T11:24:29;100626.13;;;21.55;59.50
4449;BME280;2237;51.870;6.160;2022-09-09T11:27:20;100635.06;;;21.28;59.11
4449;BME280;2237;51.870;6.160;2022-09-09T11:33:25;100640.41;;;20.76;60.94
4449;BME280;2237;51.870;6.160;2022-09-09T11:36:06;100638.38;;;20.67;61.11
4449;BME280;2237;51.870;6.160;2022-09-09T11:38:45;100631.81;;;20.60;61.36
4449;BME280;2237;51.870;6.160;2022-09-09T11:41:14;100634.88;;;20.67;61.64
4449;BME280;2237;51.870;6.160;2022-09-09T11:43:49;100634.47;;;20.73;62.25
4449;BME280;2237;51.870;6.160;2022-09-09T11:46:23;100642.97;;;20.78;63.40
4449;BME280;2237;51.870;6.160;2022-09-09T11:49:04;100652.06;;;20.74;65.73
4449;BME280;2237;51.870;6.160;2022-09-09T11:51:32;100642.28;;;19.94;70.70
4449;BME280;2237;51.870;6.160;2022-09-09T11:54:02;100654.19;;;20.01;72.77
4449;BME280;2237;51.870;6.160;2022-09-09T11:59:40;100658.47;;;20.31;75.31
4449;BME280;2237;51.870;6.160;2022-09-09T12:02:23;100656.44;;;20.48;73.68
4449;BME280;2237;51.870;6.160;2022-09-09T12:05:04;100657.44;;;20.72;73.39
4449;BME280;2237;51.870;6.160;2022-09-09T12:10:20;100649.63;;;20.83;72.49
4449;BME280;2237;51.870;6.160;2022-09-09T12:12:48;100653.09;;;20.84;73.06
4449;BME280;2237;51.870;6.160;2022-09-09T12:15:25;100651.31;;;20.72;73.58
4449;BME280;2237;51.870;6.160;2022-09-09T12:17:58;100653.47;;;20.53;75.06
4449;BME280;2237;51.870;6.160;2022-09-09T12:31:17;100655.25;;;20.52;78.79
4449;BME280;2237;51.870;6.160;2022-09-09T12:33:46;100647.09;;;20.95;76.85
4449;BME280;2237;51.870;6.160;2022-09-09T12:36:19;100645.25;;;21.47;74.47
4449;BME280;2237;51.870;6.160;2022-09-09T12:38:47;100628.22;;;21.62;72.10
4449;BME280;2237;51.870;6.160;2022-09-09T12:41:21;100645.81;;;21.76;71.79
4449;BME280;2237;51.870;6.160;2022-09-09T12:43:48;100641.88;;;21.81;71.37
4449;BME280;2237;51.870;6.160;2022-09-09T12:48:55;100654.84;;;22.46;69.49
4449;BME280;2237;51.870;6.160;2022-09-09T12:51:28;100643.38;;;22.69;67.76
4449;BME280;2237;51.870;6.160;2022-09-09T12:53:56;100633.13;;;23.22;66.42
4449;BME280;2237;51.870;6.160;2022-09-09T12:56:30;100632.44;;;23.53;63.45
4449;BME280;2237;51.870;6.160;2022-09-09T12:58:58;100631.81;;;23.60;64.92
4449;BME280;2237;51.870;6.160;2022-09-09T13:01:30;100629.69;;;24.08;62.70
4449;BME280;2237;51.870;6.160;2022-09-09T13:03:57;100632.34;;;23.97;61.73
4449;BME280;2237;51.870;6.160;2022-09-09T13:06:29;100629.25;;;23.81;61.21
4449;BME280;2237;51.870;6.160;2022-09-09T13:09:01;100625.06;;;23.68;62.03
4449;BME280;2237;51.870;6.160;2022-09-09T13:12:00;100627.97;;;23.53;62.69
4449;BME280;2237;51.870;6.160;2022-09-09T13:14:31;100617.78;;;23.70;60.92
4449;BME280;2237;51.870;6.160;2022-09-09T13:17:02;100613.53;;;23.23;62.45
4449;BME280;2237;51.870;6.160;2022-09-09T13:19:32;100619.94;;;23.20;63.39
4449;BME280;2237;51.870;6.160;2022-09-09T13:21:59;100619.00;;;23.43;62.24
4449;BME280;2237;51.870;6.160;2022-09-09T13:24:30;100616.59;;;23.74;60.67
4449;BME280;2237;51.870;6.160;2022-09-09T13:26:59;100622.94;;;23.93;59.98
4449;BME280;2237;51.870;6.160;2022-09-09T13:29:28;100617.63;;;24.68;57.30
4449;BME280;2237;51.870;6.160;2022-09-09T13:32:16;100601.34;;;24.50;56.97
4449;BME280;2237;51.870;6.160;2022-09-09T13:34:51;100602.88;;;24.32;57.38
4449;BME280;2237;51.870;6.160;2022-09-09T13:37:38;100605.31;;;23.81;58.49
4449;BME280;2237;51.870;6.160;2022-09-09T13:40:17;100594.00;;;23.46;59.59
4449;BME280;2237;51.870;6.160;2022-09-09T13:42:44;100595.41;;;23.17;60.29
4449;BME280;2237;51.870;6.160;2022-09-09T13:45:19;100599.38;;;23.11;59.63
4449;BME280;2237;51.870;6.160;2022-09-09T13:47:49;100591.56;;;23.54;59.64
4449;BME280;2237;51.870;6.160;2022-09-09T13:50:26;100594.91;;;23.78;58.85
4449;BME280;2237;51.870;6.160;2022-09-09T13:52:55;100595.44;;;23.50;58.46
4449;BME280;2237;51.870;6.160;2022-09-09T13:55:27;100595.69;;;23.25;59.99
4449;BME280;2237;51.870;6.160;2022-09-09T14:00:24;100603.84;;;22.30;62.72
4449;BME280;2237;51.870;6.160;2022-09-09T14:02:51;100606.50;;;21.70;64.72
4449;BME280;2237;51.870;6.160;2022-09-09T14:05:18;100599.78;;;21.28;67.81
4449;BME280;2237;51.870;6.160;2022-09-09T14:07:45;100602.03;;;21.09;69.75
4449;BME280;2237;51.870;6.160;2022-09-09T14:10:17;100607.84;;;21.14;70.25
4449;BME280;2237;51.870;6.160;2022-09-09T14:12:44;100608.44;;;21.05;70.71
4449;BME280;2237;51.870;6.160;2022-09-09T14:15:11;100613.75;;;21.05;71.54
4449;BME280;2237;51.870;6.160;2022-09-09T14:17:38;100599.13;;;20.99;71.61
4449;BME280;2237;51.870;6.160;2022-09-09T14:20:06;100603.16;;;20.92;72.18
4449;BME280;2237;51.870;6.160;2022-09-09T14:22:36;100605.28;;;21.00;72.74
4449;BME280;2237;51.870;6.160;2022-09-09T14:25:03;100612.06;;;21.04;72.00
4449;BME280;2237;51.870;6.160;2022-09-09T14:27:30;100613.94;;;21.02;72.77
4449;BME280;2237;51.870;6.160;2022-09-09T14:29:56;100618.22;;;21.17;73.18
4449;BME280;2237;51.870;6.160;2022-09-09T14:32:24;100613.09;;;21.39;72.84
4449;BME280;2237;51.870;6.160;2022-09-09T14:34:50;100607.94;;;22.23;70.24
4449;BME280;2237;51.870;6.160;2022-09-09T14:37:17;100595.72;;;22.90;67.57
4449;BME280;2237;51.870;6.160;2022-09-09T14:39:44;100588.09;;;23.53;64.20
4449;BME280;2237;51.870;6.160;2022-09-09T14:42:11;100593.25;;;25.14;59.67
4449;BME280;2237;51.870;6.160;2022-09-09T14:44:38;100586.56;;;28.14;50.05
4449;BME280;2237;51.870;6.160;2022-09-09T14:47:05;100578.13;;;31.42;43.39
4449;BME280;2237;51.870;6.160;2022-09-09T14:49:31;100586.63;;;35.95;34.18
4449;BME280;2237;51.870;6.160;2022-09-09T14:51:58;100582.69;;;37.99;29.95
4449;BME280;2237;51.870;6.160;2022-09-09T14:54:24;100587.69;;;37.58;29.86
4449;BME280;2237;51.870;6.160;2022-09-09T14:56:50;100582.72;;;37.93;27.55
4449;BME280;2237;51.870;6.160;2022-09-09T14:59:17;100584.06;;;36.73;28.87
4449;BME280;2237;51.870;6.160;2022-09-09T15:01:43;100580.44;;;35.19;31.85
4449;BME280;2237;51.870;6.160;2022-09-09T15:04:12;100583.38;;;33.40;33.92
4449;BME280;2237;51.870;6.160;2022-09-09T15:06:38;100576.97;;;31.37;36.86
4449;BME280;2237;51.870;6.160;2022-09-09T15:09:06;100568.47;;;29.46;40.55
4449;BME280;2237;51.870;6.160;2022-09-09T15:11:37;100569.59;;;28.05;43.20
4449;BME280;2237;51.870;6.160;2022-09-09T15:14:05;100564.88;;;26.98;46.30
4449;BME280;2237;51.870;6.160;2022-09-09T15:16:32;100571.00;;;26.43;48.67
4449;BME280;2237;51.870;6.160;2022-09-09T15:19:00;100564.66;;;26.24;50.08
4449;BME280;2237;51.870;6.160;2022-09-09T15:21:32;100560.31;;;26.33;48.40